Bei Facebook empfehlenBei Twitter postenGoogle plusPinterest

Das Wetter im Erzgebirge am 13.02.2017

Wetter und Klima am 13.02.2017 Holzhau im Erzgebirge (630m ü.NN)
Letzte gemessene Temperatur und Uhrzeit der Messung23:45:00 Uhr-0.90 °C
Temperatur (Maximum / Höchstwert) und Uhrzeit der Messung14:45:00 Uhr6.10 °C
Temperatur (Minimum / Tiefstwert) und Uhrzeit der Messung07:45:00-4.10 °C
Errechneter Absolutwert der Temperaturschwankungen zwischen Tmin und Tmax des Tages10.20 K
Errechnete Tagesmitteltemperatur-0.44375 °C
Gesamt - Niederschlag des Tages (in flüssiger Form)0.00 Liter / m²
Luftdruck (Maximum / Höchstwert) und Zeitpunkt der Messung12:15:00 Uhr1028.60 hPa
Luftdruck (Minimum / Tiefstwert) und Zeitpunkt der Messung23:15:00 Uhr1026.60 hPa
Errechneter Absolutwert der Luftdruckschwankungen des Tages2.00 hPa
Höchste gemessene Windgeschwindigkeit und Uhrzeit der Messung22:45:00 Uhr15.48 km/h
Errechnete Windhäufigkeit in Relation zu den Messwerten des Tages65.62500 %
Niedrigste Windkühle (Windchill) und Zeitpunkt der Messung06:45:00 Uhr-7.70 °C
Taupunkt (Maximum / Höchstwert) und Uhrzeit der Messung15:45:00 Uhr-3.60 °C
Taupunkt (Minimum / Tiefstwert) und Uhrzeit der Messung18:15:00-7.80 °C
Anzahl der automatisch eingelesenen Messwerte 96

Detaillierte Wetter- und Klima- Messwerte für den 13.02.2017 in Holzhau im Erzgebirge (630m ü.NN)
ZeitTemperaturLuftdruckRel. LuftfeuchteWindWindrichtungWindchillTaupunktNiederschlag l/m²
23:45:00-0.90 °C1026.70 hPa72.00 %14.40 km/hOSO-5.40 °C-5.80 °C 
23:30:00-0.90 °C1026.70 hPa72.00 %9.00 km/hOSO-4.10 °C-5.80 °C 
23:15:00-1.00 °C1026.60 hPa72.00 %7.20 km/hOSO-3.60 °C-5.90 °C 
23:00:00-0.80 °C1026.60 hPa71.00 %13.68 km/hO-5.10 °C-5.90 °C 
22:45:00-0.70 °C1026.70 hPa71.00 %15.48 km/hO-5.40 °C-5.80 °C 
22:30:00-0.80 °C1026.80 hPa71.00 %9.36 km/hOSO-4.10 °C-5.90 °C 
22:15:00-1.00 °C1026.70 hPa71.00 %11.88 km/hSO-5.00 °C-6.10 °C 
22:00:00-1.10 °C1026.70 hPa71.00 %1.08 km/hOSO-1.10 °C-6.20 °C 
21:45:00-1.10 °C1026.80 hPa71.00 %5.76 km/hSO-3.20 °C-6.20 °C 
21:30:00-1.10 °C1026.90 hPa72.00 %9.36 km/hSO-4.40 °C-6.00 °C 
21:15:00-1.20 °C1026.80 hPa72.00 %5.76 km/hSO-3.30 °C-6.10 °C 
21:00:00-1.40 °C1026.80 hPa72.00 %6.12 km/hOSO-3.70 °C-6.30 °C 
20:45:00-1.50 °C1026.90 hPa72.00 %3.24 km/hONO-1.50 °C-6.40 °C 
20:30:00-1.40 °C1027.00 hPa72.00 %1.08 km/hOSO-1.40 °C-6.30 °C 
20:15:00-1.40 °C1026.90 hPa72.00 %-6.30 °C 
20:00:00-1.20 °C1027.00 hPa72.00 %-6.10 °C 
19:45:00-1.60 °C1027.00 hPa74.00 %7.92 km/hSO-4.60 °C-6.10 °C 
19:30:00-2.20 °C1026.90 hPa76.00 %4.68 km/hSO-2.20 °C-6.30 °C 
19:15:00-2.90 °C1027.20 hPa76.00 %1.08 km/hO-2.90 °C-7.00 °C 
19:00:00-3.10 °C1027.10 hPa75.00 %-7.40 °C 
18:45:00-3.20 °C1027.40 hPa75.00 %-7.40 °C 
18:30:00-3.10 °C1027.60 hPa73.00 %-7.70 °C 
18:15:00-2.70 °C1027.60 hPa71.00 %-7.80 °C 
18:00:00-2.20 °C1027.80 hPa70.00 %-7.50 °C 
17:45:00-1.50 °C1027.90 hPa68.00 %-7.20 °C 
17:30:00-0.40 °C1027.90 hPa64.00 %-7.10 °C 
17:15:000.90 °C1027.80 hPa61.00 %-5.80 °C 
17:00:002.10 °C1027.90 hPa58.00 %-5.30 °C 
16:45:002.90 °C1027.90 hPa56.00 %-5.00 °C 
16:30:003.90 °C1027.90 hPa54.00 %-4.50 °C 
16:15:004.80 °C1027.80 hPa52.00 %-4.20 °C 
16:00:005.40 °C1028.10 hPa51.00 %-3.90 °C 
15:45:005.70 °C1028.00 hPa51.00 %-3.60 °C 
15:30:005.50 °C1028.10 hPa51.00 %5.04 km/hSO4.60 °C-3.80 °C 
15:15:005.60 °C1028.30 hPa49.00 %-4.30 °C 
15:00:005.70 °C1028.00 hPa49.00 %1.80 km/hO5.70 °C-4.20 °C 
14:45:006.10 °C1028.10 hPa49.00 %5.04 km/hOSO5.30 °C-3.80 °C 
14:30:005.90 °C1028.30 hPa50.00 %-3.70 °C 
14:15:005.90 °C1028.20 hPa48.00 %11.16 km/hSO3.50 °C-4.30 °C 
14:00:006.10 °C1028.20 hPa49.00 %3.24 km/hOSO6.10 °C-3.80 °C 
13:45:005.80 °C1028.20 hPa49.00 %-4.10 °C 
13:30:005.80 °C1028.20 hPa50.00 %-3.80 °C 
13:15:005.30 °C1028.30 hPa50.00 %-4.30 °C 
13:00:005.30 °C1028.50 hPa51.00 %1.80 km/hSO5.30 °C-4.00 °C 
12:45:004.90 °C1028.40 hPa51.00 %1.80 km/hSSO4.90 °C-4.40 °C 
12:30:004.50 °C1028.50 hPa51.00 %-4.70 °C 
12:15:004.40 °C1028.60 hPa50.00 %6.84 km/hOSO2.80 °C-5.10 °C 
12:00:004.70 °C1028.40 hPa53.00 %3.24 km/hSO4.70 °C-4.00 °C 
11:45:004.40 °C1028.50 hPa55.00 %9.72 km/hSW2.00 °C-3.80 °C 
11:30:003.80 °C1028.40 hPa57.00 %-3.90 °C 
11:15:003.50 °C1028.30 hPa58.00 %-4.00 °C 
11:00:002.90 °C1028.30 hPa59.00 %3.60 km/hSSO2.90 °C-4.30 °C 
10:45:002.50 °C1028.00 hPa60.00 %14.04 km/hSO-1.20 °C-4.50 °C 
10:30:002.00 °C1027.80 hPa64.00 %1.80 km/hOSO2.00 °C-4.10 °C 
10:15:001.40 °C1027.90 hPa66.00 %5.76 km/hOSO-0.30 °C-4.20 °C 
10:00:000.90 °C1027.90 hPa67.00 %1.44 km/hO0.90 °C-4.50 °C 
09:45:000.40 °C1027.80 hPa69.00 %2.16 km/hO0.40 °C-4.60 °C 
09:30:00-0.20 °C1027.50 hPa72.00 %5.76 km/hOSO-2.20 °C-5.10 °C 
09:15:00-1.00 °C1027.50 hPa75.00 %3.24 km/hSO-1.00 °C-5.30 °C 
09:00:00-1.60 °C1027.70 hPa77.00 %3.96 km/hONO-1.60 °C-5.50 °C 
08:45:00-2.40 °C1027.50 hPa79.00 %3.60 km/hOSO-2.40 °C-5.90 °C 
08:30:00-2.90 °C1027.40 hPa81.00 %7.20 km/hOSO-5.90 °C-6.00 °C 
08:15:00-3.60 °C1027.40 hPa83.00 %5.76 km/hOSO-6.10 °C-6.40 °C 
08:00:00-3.90 °C1027.40 hPa83.00 %5.76 km/hOSO-6.40 °C-6.70 °C 
07:45:00-4.10 °C1027.70 hPa83.00 %2.88 km/hSO-4.10 °C-6.80 °C 
07:30:00-4.10 °C1027.60 hPa83.00 %-6.80 °C 
07:15:00-3.90 °C1027.60 hPa83.00 %5.04 km/hSSO-6.00 °C-6.70 °C 
07:00:00-3.90 °C1027.50 hPa83.00 %4.32 km/hOSO-3.90 °C-6.70 °C 
06:45:00-3.70 °C1027.40 hPa83.00 %9.72 km/hSO-7.70 °C-6.50 °C 
06:30:00-3.70 °C1027.30 hPa83.00 %4.32 km/hOSO-3.70 °C-6.50 °C 
06:15:00-3.90 °C1027.40 hPa83.00 %1.80 km/hO-3.90 °C-6.70 °C 
06:00:00-4.10 °C1027.50 hPa83.00 %-6.80 °C 
05:45:00-3.90 °C1027.40 hPa83.00 %3.60 km/hOSO-3.90 °C-6.70 °C 
05:30:00-3.80 °C1027.40 hPa82.00 %-6.70 °C 
05:15:00-3.90 °C1027.40 hPa82.00 %-6.80 °C 
05:00:00-3.80 °C1027.40 hPa82.00 %-6.70 °C 
04:45:00-3.70 °C1027.40 hPa82.00 %3.96 km/hO-3.70 °C-6.60 °C 
04:30:00-3.70 °C1027.40 hPa82.00 %3.24 km/hOSO-3.70 °C-6.60 °C 
04:15:00-3.80 °C1027.50 hPa82.00 %7.20 km/hOSO-6.90 °C-6.70 °C 
04:00:00-3.60 °C1027.40 hPa82.00 %-6.50 °C 
03:45:00-3.60 °C1027.30 hPa83.00 %-6.40 °C 
03:30:00-3.70 °C1027.20 hPa83.00 %3.24 km/hOSO-3.70 °C-6.50 °C 
03:15:00-3.60 °C1027.10 hPa83.00 %-6.40 °C 
03:00:00-3.60 °C1027.00 hPa83.00 %3.96 km/hSSO-3.60 °C-6.40 °C 
02:45:00-3.60 °C1027.00 hPa83.00 %1.80 km/hSO-3.60 °C-6.40 °C 
02:30:00-3.60 °C1026.90 hPa83.00 %1.44 km/hOSO-3.60 °C-6.40 °C 
02:15:00-3.60 °C1026.90 hPa83.00 %1.80 km/hNNO-3.60 °C-6.40 °C 
02:00:00-3.50 °C1026.80 hPa83.00 %4.68 km/hOSO-3.50 °C-6.30 °C 
01:45:00-3.40 °C1026.80 hPa82.00 %-6.30 °C 
01:30:00-3.20 °C1026.90 hPa82.00 %1.08 km/hSO-3.20 °C-6.10 °C 
01:15:00-3.10 °C1026.90 hPa82.00 %7.20 km/hO-6.10 °C-6.00 °C 
01:00:00-3.10 °C1026.80 hPa82.00 %5.40 km/hSO-5.30 °C-6.00 °C 
00:45:00-3.10 °C1026.70 hPa82.00 %7.20 km/hSO-6.10 °C-6.00 °C 
00:30:00-3.10 °C1026.80 hPa82.00 %6.48 km/hOSO-5.80 °C-6.00 °C 
00:15:00-3.10 °C1026.90 hPa83.00 %4.68 km/hOSO-3.10 °C-5.90 °C 
00:00:00-3.10 °C1026.80 hPa83.00 %6.12 km/hOSO-5.60 °C-5.90 °C 

Permanenter Link zu dieser Seite: Wetter im Erzgebirge am 13.02.2017
Performance-Info: Die Erstellung der Seite / Statistik(en) / Tabelle(n) erforderte 5 Datenbankserver-Abfrage(n) und dauerte 96 Millisekunden. (Dieser Messwert ist von der Gesamt-Auslastung des Servers abhängig.)
Erzgebirge - Wetter | Erzgebirge - Wetter (Mobilgeräte) | Komplette Klimadatenbank